Time;durP1;ratioP1;P1;durP2;ratioP2;P2;SDS_P1;SDS_P2;PMS_P1;PMS_P2;Temp;Humidity;BMP_temperature;BMP_pressure;BME280_temperature;BME280_humidity;BME280_pressure;Samples;Min_cycle;Max_cycle;Signal;HPM_P1;HPM_P2
2024/04/07 00:00:40;;;;;;;20.17;14.00;;;12.50;99.90;;;;;;4876514;29;20119;-80
2024/04/07 00:03:05;;;;;;;21.15;14.90;;;12.50;99.90;;;;;;4884883;29;20105;-79
2024/04/07 00:05:31;;;;;;;18.13;13.55;;;12.60;99.90;;;;;;4894771;29;20037;-79
2024/04/07 00:07:57;;;;;;;19.30;13.55;;;12.70;99.90;;;;;;4899517;29;20039;-79
2024/04/07 00:10:22;;;;;;;18.95;13.75;;;12.70;92.20;;;;;;4880624;29;20165;-79
2024/04/07 00:12:48;;;;;;;19.02;14.27;;;12.70;98.10;;;;;;4908654;29;20123;-79
2024/04/07 00:15:13;;;;;;;18.38;13.40;;;12.60;99.90;;;;;;4885493;29;20370;-80
2024/04/07 00:17:39;;;;;;;20.42;14.32;;;12.60;99.90;;;;;;4880819;29;20041;-80
2024/04/07 00:20:05;;;;;;;20.42;14.93;;;12.60;99.90;;;;;;4880680;29;20034;-79
2024/04/07 00:22:31;;;;;;;20.60;15.13;;;12.50;99.90;;;;;;4899213;29;20033;-80
2024/04/07 00:24:57;;;;;;;19.80;14.13;;;12.50;99.90;;;;;;4899248;29;20039;-79
2024/04/07 00:27:22;;;;;;;21.05;14.63;;;12.40;99.90;;;;;;4899227;29;20039;-80
2024/04/07 00:29:50;;;;;;;21.73;15.18;;;12.50;99.90;;;;;;4899081;29;20028;-79
2024/04/07 00:32:16;;;;;;;23.00;15.90;;;12.40;99.90;;;;;;4899096;29;20568;-79
2024/04/07 00:34:43;;;;;;;20.98;15.30;;;12.30;99.90;;;;;;4880257;29;20203;-78
2024/04/07 00:37:08;;;;;;;20.90;14.40;;;12.30;99.90;;;;;;4865975;29;20185;-78
2024/04/07 00:39:35;;;;;;;19.45;14.23;;;12.30;99.90;;;;;;4861665;29;20160;-78
2024/04/07 00:42:01;;;;;;;22.50;15.35;;;12.40;99.90;;;;;;4876579;29;20037;-79
2024/04/07 00:44:27;;;;;;;21.60;15.32;;;12.30;99.90;;;;;;4898994;29;20041;-80
2024/04/07 00:46:52;;;;;;;22.05;15.60;;;12.30;99.90;;;;;;4898952;29;20492;-79
2024/04/07 00:49:18;;;;;;;20.73;15.68;;;12.20;99.90;;;;;;4917577;29;20068;-80
2024/04/07 00:51:44;;;;;;;20.55;15.13;;;12.20;99.90;;;;;;4880008;29;20033;-79
2024/04/07 00:54:12;;;;;;;21.40;15.63;;;12.30;99.90;;;;;;4894662;29;20048;-79
2024/04/07 00:56:38;;;;;;;21.58;16.55;;;12.30;99.90;;;;;;4899366;29;20037;-79
2024/04/07 00:59:05;;;;;;;25.58;16.95;;;12.20;99.90;;;;;;4861182;29;20124;-79
2024/04/07 01:01:31;;;;;;;24.85;16.83;;;12.20;99.90;;;;;;4861490;29;20038;-80
2024/04/07 01:03:56;;;;;;;25.25;18.05;;;12.20;99.90;;;;;;4861774;29;20045;-80
2024/04/07 01:06:22;;;;;;;22.95;17.92;;;12.20;99.90;;;;;;4861159;29;20163;-80
2024/04/07 01:08:48;;;;;;;25.45;18.13;;;12.20;99.90;;;;;;4847578;29;20038;-80
2024/04/07 01:11:14;;;;;;;24.60;17.70;;;12.20;99.90;;;;;;4842919;29;20060;-79
2024/04/07 01:13:39;;;;;;;24.13;18.35;;;12.20;99.90;;;;;;4842727;29;20537;-79
2024/04/07 01:16:05;;;;;;;26.55;19.92;;;12.20;99.90;;;;;;4857006;29;20046;-79
2024/04/07 01:18:31;;;;;;;27.95;21.15;;;12.20;99.90;;;;;;4879638;29;20513;-79
2024/04/07 01:20:57;;;;;;;29.33;19.88;;;12.10;99.90;;;;;;4879772;29;20200;-79
2024/04/07 01:23:22;;;;;;;29.67;21.13;;;12.10;99.90;;;;;;4898190;29;20151;-79
2024/04/07 01:25:48;;;;;;;27.17;20.95;;;12.10;99.90;;;;;;4900377;29;20037;-78
2024/04/07 01:28:14;;;;;;;30.23;22.83;;;12.00;99.90;;;;;;4917143;29;20487;-78
2024/04/07 01:30:40;;;;;;;34.00;23.92;;;12.00;99.90;;;;;;4919962;29;20149;-78
2024/04/07 01:33:06;;;;;;;33.90;24.00;;;12.00;99.90;;;;;;4954815;29;20039;-79
2024/04/07 01:35:32;;;;;;;34.92;24.90;;;11.90;99.90;;;;;;4954925;29;20501;-79
2024/04/07 01:37:58;;;;;;;34.67;25.20;;;11.80;99.90;;;;;;4954683;28;20040;-80
2024/04/07 01:40:23;;;;;;;33.97;25.33;;;11.80;99.90;;;;;;4897795;29;20045;-80
2024/04/07 01:42:52;;;;;;;34.83;25.10;;;11.70;99.90;;;;;;4897951;29;20112;-78
2024/04/07 01:45:19;;;;;;;31.85;23.15;;;11.70;99.90;;;;;;4898063;29;20378;-78
2024/04/07 01:47:45;;;;;;;31.80;23.92;;;11.70;99.90;;;;;;4897843;29;20091;-78
2024/04/07 01:50:11;;;;;;;33.67;24.02;;;11.70;99.90;;;;;;4864405;29;20483;-79
2024/04/07 01:52:37;;;;;;;32.80;23.85;;;11.70;99.90;;;;;;4832143;29;20038;-78
2024/04/07 01:55:02;;;;;;;30.92;22.88;;;11.60;1.00;;;;;;4837678;29;20050;-79
2024/04/07 01:57:28;;;;;;;32.58;23.08;;;11.60;1.00;;;;;;4841704;29;20042;-79
2024/04/07 01:59:55;;;;;;;29.80;23.50;;;11.60;1.00;;;;;;4823508;29;20034;-78
2024/04/07 02:02:21;;;;;;;32.00;21.98;;;11.50;1.00;;;;;;4837983;29;20377;-78
2024/04/07 02:04:47;;;;;;;29.25;22.13;;;11.50;1.00;;;;;;4841828;29;20152;-78
2024/04/07 02:07:13;;;;;;;32.63;22.30;;;11.40;1.00;;;;;;4813423;29;20043;-78
2024/04/07 02:09:38;;;;;;;30.45;23.42;;;11.40;1.00;;;;;;4807294;29;20050;-78
2024/04/07 02:12:05;;;;;;;28.83;22.73;;;11.30;1.00;;;;;;4837299;29;20068;-77
2024/04/07 02:14:31;;;;;;;32.88;23.65;;;11.30;1.00;;;;;;4871070;29;20051;-78
2024/04/07 02:16:57;;;;;;;33.35;23.23;;;11.30;1.00;;;;;;4841439;29;20041;-78
2024/04/07 02:19:22;;;;;;;30.13;22.60;;;11.20;1.00;;;;;;4841752;29;20042;-78
2024/04/07 02:21:48;;;;;;;31.05;22.30;;;11.20;1.00;;;;;;4837246;29;20034;-77
2024/04/07 02:24:13;;;;;;;28.05;21.05;;;11.20;1.00;;;;;;4860323;29;20041;-77
2024/04/07 02:26:39;;;;;;;28.42;21.55;;;11.20;1.00;;;;;;4860264;29;20072;-77
2024/04/07 02:29:04;;;;;;;27.27;21.23;;;11.20;1.00;;;;;;4873870;29;20041;-77
2024/04/07 02:31:30;;;;;;;29.88;21.33;;;11.20;1.00;;;;;;4878179;29;20409;-77
2024/04/07 02:33:56;;;;;;;28.02;20.35;;;11.20;1.00;;;;;;4906244;29;20095;-78
2024/04/07 02:36:22;;;;;;;28.27;21.23;;;11.20;1.00;;;;;;4917532;29;20448;-77
2024/04/07 02:38:47;;;;;;;28.63;20.23;;;11.20;2.30;;;;;;4934790;29;20063;-77
2024/04/07 02:41:15;;;;;;;28.90;20.70;;;11.20;8.20;;;;;;4934773;29;20051;-78
2024/04/07 02:43:41;;;;;;;26.65;19.05;;;11.20;13.40;;;;;;4934597;29;20506;-77
2024/04/07 02:48:50;;;;;;;27.17;19.38;;;11.20;25.50;;;;;;4986018;28;20072;-79
2024/04/07 02:51:16;;;;;;;24.75;18.27;;;11.20;32.00;;;;;;4992928;28;20054;-80
2024/04/07 02:53:41;;;;;;;25.33;19.33;;;11.20;42.40;;;;;;4970685;28;20105;-80
2024/04/07 02:56:08;;;;;;;23.80;19.27;;;11.20;23.30;;;;;;4990044;28;20045;-80
2024/04/07 02:58:34;;;;;;;24.52;18.20;;;11.30;24.80;;;;;;4992739;28;20083;-77
2024/04/07 03:01:06;;;;;;;26.60;19.60;;;11.30;30.30;;;;;;4992270;28;20026;-77
2024/04/07 03:03:33;;;;;;;23.75;18.73;;;11.20;34.10;;;;;;4972910;28;20042;-78
2024/04/07 03:06:03;;;;;;;25.98;19.50;;;11.20;19.70;;;;;;4953732;28;20380;-78
2024/04/07 03:08:28;;;;;;;30.08;20.40;;;11.20;61.40;;;;;;4953808;29;20198;-78
2024/04/07 03:11:00;;;;;;;28.15;20.63;;;11.20;53.30;;;;;;4934283;29;20130;-78
2024/04/07 03:13:26;;;;;;;26.55;20.30;;;11.10;53.80;;;;;;4934199;29;20044;-78
2024/04/07 03:15:52;;;;;;;26.30;20.55;;;11.10;63.80;;;;;;4934814;29;20035;-78
2024/04/07 03:18:18;;;;;;;28.10;20.90;;;11.10;80.80;;;;;;4934208;29;20117;-79
2024/04/07 03:20:43;;;;;;;27.48;20.90;;;11.10;76.70;;;;;;4934285;29;20047;-78
2024/04/07 03:23:10;;;;;;;28.73;19.48;;;11.10;87.70;;;;;;4914740;29;20037;-78
2024/04/07 03:25:35;;;;;;;24.00;19.58;;;11.10;93.60;;;;;;4931856;29;20408;-78
2024/04/07 03:28:01;;;;;;;25.73;20.05;;;11.10;93.20;;;;;;4938337;29;20040;-78
2024/04/07 03:30:27;;;;;;;26.33;19.02;;;11.10;93.50;;;;;;4933744;29;20048;-78
2024/04/07 03:32:52;;;;;;;26.08;18.65;;;11.10;91.10;;;;;;4934218;29;20043;-78
2024/04/07 03:35:18;;;;;;;24.45;17.38;;;11.20;83.10;;;;;;4914888;29;20040;-78
2024/04/07 03:37:43;;;;;;;23.35;16.65;;;11.20;76.30;;;;;;4930339;29;20039;-77
2024/04/07 03:40:09;;;;;;;24.98;18.05;;;11.30;61.70;;;;;;4914912;29;20067;-77
2024/04/07 03:42:35;;;;;;;21.30;17.08;;;11.20;56.10;;;;;;4915352;29;20040;-78
2024/04/07 03:45:00;;;;;;;24.38;18.15;;;11.20;66.80;;;;;;4915003;29;20051;-78
2024/04/07 03:47:26;;;;;;;23.48;17.42;;;11.30;36.00;;;;;;4915090;29;20116;-78
2024/04/07 03:49:51;;;;;;;22.30;17.38;;;11.30;34.30;;;;;;4914863;29;20491;-78
2024/04/07 03:52:19;;;;;;;23.15;18.13;;;11.20;35.40;;;;;;4915006;29;20417;-78
2024/04/07 03:54:44;;;;;;;24.35;19.10;;;11.20;48.70;;;;;;4914873;29;20051;-78
2024/04/07 03:57:10;;;;;;;23.85;19.20;;;11.20;40.90;;;;;;4929303;29;20044;-78
2024/04/07 03:59:36;;;;;;;26.27;19.55;;;11.10;71.50;;;;;;4933860;29;20524;-78
2024/04/07 04:02:02;;;;;;;25.60;19.55;;;11.00;85.90;;;;;;4919944;29;20115;-78
2024/04/07 04:04:27;;;;;;;28.60;19.25;;;10.90;99.90;;;;;;4895852;29;20037;-78
2024/04/07 04:06:53;;;;;;;25.55;20.35;;;10.90;99.90;;;;;;4909954;29;20083;-78
2024/04/07 04:09:18;;;;;;;28.83;19.67;;;10.80;99.90;;;;;;4923906;29;20090;-77
2024/04/07 04:11:44;;;;;;;26.70;18.90;;;10.80;99.90;;;;;;4942989;29;20035;-78
2024/04/07 04:14:09;;;;;;;26.90;19.23;;;10.90;99.90;;;;;;4952982;29;20044;-78
2024/04/07 04:16:35;;;;;;;25.23;18.40;;;10.90;99.90;;;;;;4953247;29;20047;-78
2024/04/07 04:19:01;;;;;;;25.95;18.92;;;10.90;99.90;;;;;;4933993;29;20497;-78
2024/04/07 04:21:26;;;;;;;23.90;18.30;;;10.90;99.90;;;;;;4933798;29;20067;-77
2024/04/07 04:23:52;;;;;;;23.90;18.58;;;10.80;99.90;;;;;;4933518;29;20126;-77
2024/04/07 04:26:17;;;;;;;27.52;18.63;;;10.80;99.90;;;;;;4933769;29;20042;-77
2024/04/07 04:28:43;;;;;;;26.50;18.40;;;10.80;99.90;;;;;;4933681;29;20072;-77
2024/04/07 04:31:10;;;;;;;26.08;18.52;;;10.80;99.90;;;;;;4933234;29;20151;-78
2024/04/07 04:33:36;;;;;;;29.45;18.20;;;11.10;78.30;;;;;;4934081;29;20046;-78
2024/04/07 04:36:04;;;;;;;25.63;17.70;;;11.00;54.60;;;;;;4903672;29;20123;-78
2024/04/07 04:38:29;;;;;;;25.08;17.88;;;11.00;48.20;;;;;;4899157;29;20029;-78
2024/04/07 04:40:56;;;;;;;24.23;17.17;;;11.20;25.80;;;;;;4899110;29;20125;-78
2024/04/07 04:43:22;;;;;;;24.13;17.27;;;11.40;1.00;;;;;;4913613;29;20067;-79
2024/04/07 04:45:58;;;;;;;21.63;16.83;;;11.40;1.00;;;;;;4917675;29;20036;-79
2024/04/07 04:48:24;;;;;;;22.45;15.93;;;11.40;1.00;;;;;;4898938;29;20048;-79
2024/04/07 04:50:55;;;;;;;23.48;15.75;;;11.60;1.00;;;;;;4917478;29;20081;-79
2024/04/07 04:53:21;;;;;;;18.48;14.70;;;11.70;1.00;;;;;;4917735;29;20036;-79
2024/04/07 04:55:46;;;;;;;20.30;14.25;;;11.80;1.00;;;;;;4931721;29;20063;-79
2024/04/07 04:58:12;;;;;;;22.25;15.10;;;11.80;1.00;;;;;;4936680;29;20392;-78
2024/04/07 05:00:37;;;;;;;17.58;13.75;;;11.90;99.90;;;;;;4936637;29;20551;-77
2024/04/07 05:03:03;;;;;;;17.73;13.48;;;12.20;99.90;;;;;;4970289;28;20567;-77
2024/04/07 05:05:28;;;;;;;18.92;13.50;;;12.70;99.90;;;;;;4974882;28;20510;-78
2024/04/07 05:07:54;;;;;;;19.90;13.90;;;13.00;52.90;;;;;;4938912;29;20028;-78
2024/04/07 05:10:19;;;;;;;18.23;13.18;;;13.80;1.00;;;;;;4936301;29;20082;-78
2024/04/07 05:12:45;;;;;;;18.60;12.35;;;14.10;99.90;;;;;;4936656;29;20083;-77
2024/04/07 05:15:10;;;;;;;16.90;11.95;;;14.90;99.90;;;;;;4917132;29;20048;-78
2024/04/07 05:17:36;;;;;;;17.60;11.82;;;14.70;1.00;;;;;;4917342;29;20060;-77
2024/04/07 05:20:04;;;;;;;15.38;10.85;;;15.10;1.00;;;;;;4917670;29;20046;-77
2024/04/07 05:22:30;;;;;;;20.85;10.50;;;15.90;99.90;;;;;;4947115;29;20027;-77
2024/04/07 05:24:55;;;;;;;13.95;9.75;;;15.70;99.90;;;;;;4955312;29;20074;-77
2024/04/07 05:27:21;;;;;;;16.67;10.30;;;16.00;62.20;;;;;;4998738;28;20533;-77
2024/04/07 05:29:48;;;;;;;15.57;10.30;;;16.10;1.00;;;;;;5013596;28;20026;-77
2024/04/07 05:32:14;;;;;;;13.88;9.52;;;16.30;1.00;;;;;;4955273;29;20078;-77
2024/04/07 05:34:39;;;;;;;13.30;9.73;;;15.90;99.90;;;;;;4955100;28;20039;-78
2024/04/07 05:37:06;;;;;;;14.82;10.05;;;16.50;99.90;;;;;;4955718;28;20059;-77
2024/04/07 05:39:32;;;;;;;11.00;8.90;;;16.50;99.90;;;;;;4970279;28;20121;-77
2024/04/07 05:41:57;;;;;;;12.73;9.15;;;16.60;99.90;;;;;;4974599;28;20523;-77
2024/04/07 05:44:23;;;;;;;12.73;9.32;;;15.90;99.90;;;;;;4935555;29;20043;-77
2024/04/07 05:46:52;;;;;;;13.07;9.70;;;16.20;99.90;;;;;;4936438;29;20067;-77
2024/04/07 05:49:18;;;;;;;12.15;9.00;;;17.90;1.00;;;;;;4935780;29;20464;-77
2024/04/07 05:51:43;;;;;;;14.20;9.45;;;17.40;1.00;;;;;;4941226;28;20122;-77
2024/04/07 05:54:09;;;;;;;14.38;9.95;;;17.70;99.90;;;;;;4974043;28;20134;-77
2024/04/07 05:56:34;;;;;;;14.35;9.27;;;17.50;99.90;;;;;;4916841;29;20032;-77
2024/04/07 05:59:00;;;;;;;12.63;9.00;;;17.20;99.90;;;;;;4916569;29;20044;-77
2024/04/07 06:01:26;;;;;;;15.27;9.13;;;17.60;99.90;;;;;;4916488;29;20036;-77
2024/04/07 06:03:51;;;;;;;13.60;9.02;;;17.40;99.90;;;;;;4960657;28;20038;-77
2024/04/07 06:06:17;;;;;;;13.10;9.00;;;17.40;99.90;;;;;;4973738;28;20031;-78
2024/04/07 06:08:42;;;;;;;11.98;8.88;;;17.20;99.90;;;;;;4954440;29;20391;-78
2024/04/07 06:11:08;;;;;;;13.52;8.95;;;17.50;99.90;;;;;;4935097;29;20047;-78
2024/04/07 06:13:34;;;;;;;12.75;8.23;;;18.70;99.90;;;;;;4935270;29;20044;-78
2024/04/07 06:15:59;;;;;;;11.18;7.90;;;18.90;2.50;;;;;;4901809;29;20392;-78
2024/04/07 06:18:25;;;;;;;13.32;8.40;;;19.10;1.00;;;;;;4897139;29;20500;-77
2024/04/07 06:20:51;;;;;;;14.00;7.82;;;19.00;1.00;;;;;;4897216;29;20037;-77
2024/04/07 06:23:16;;;;;;;12.95;7.63;;;19.60;1.00;;;;;;4897456;29;20146;-77
2024/04/07 06:25:42;;;;;;;11.38;7.68;;;18.80;1.00;;;;;;4896680;29;20041;-78
2024/04/07 06:28:08;;;;;;;11.70;7.55;;;18.50;1.00;;;;;;4896984;29;20040;-78
2024/04/07 06:30:35;;;;;;;12.23;7.60;;;18.10;1.00;;;;;;4897141;29;20057;-77
2024/04/07 06:33:04;;;;;;;15.15;8.35;;;17.60;1.00;;;;;;4898367;29;20044;-77
2024/04/07 06:35:30;;;;;;;11.00;7.75;;;18.10;1.00;;;;;;4915960;29;20040;-77
2024/04/07 06:37:55;;;;;;;10.05;7.47;;;19.80;1.00;;;;;;4915872;29;20152;-79
2024/04/07 06:40:21;;;;;;;11.15;7.50;;;20.00;99.90;;;;;;4959906;28;20522;-79
2024/04/07 06:42:46;;;;;;;10.65;7.70;;;20.40;99.90;;;;;;4983918;28;20041;-78
2024/04/07 06:45:12;;;;;;;10.85;7.80;;;20.90;99.90;;;;;;4992692;28;20049;-78
2024/04/07 06:47:38;;;;;;;10.57;7.15;;;21.20;88.00;;;;;;4977093;28;20035;-76
2024/04/07 06:50:05;;;;;;;14.18;10.65;;;20.30;31.60;;;;;;4988214;28;20360;-79
2024/04/07 06:52:30;;;;;;;11.60;7.30;;;21.20;6.00;;;;;;4992501;28;20034;-79
2024/04/07 06:54:56;;;;;;;12.00;7.03;;;20.80;1.00;;;;;;4992803;28;20053;-78
2024/04/07 06:57:21;;;;;;;11.80;7.10;;;20.70;1.00;;;;;;4971581;28;20089;-77
2024/04/07 06:59:49;;;;;;;9.98;6.65;;;20.70;1.00;;;;;;4952427;29;20027;-76
2024/04/07 07:02:15;;;;;;;9.32;7.05;;;20.90;1.00;;;;;;4933312;29;20089;-75
2024/04/07 07:04:41;;;;;;;11.85;7.15;;;20.80;1.00;;;;;;4934504;29;20039;-76
2024/04/07 07:07:07;;;;;;;9.77;6.75;;;20.50;1.00;;;;;;4934296;29;20511;-75
2024/04/07 07:09:32;;;;;;;12.27;6.60;;;20.50;1.00;;;;;;4953264;29;20067;-75
2024/04/07 07:11:58;;;;;;;11.57;6.47;;;20.30;1.00;;;;;;4915040;29;20500;-75
2024/04/07 07:14:23;;;;;;;10.82;6.90;;;19.70;1.00;;;;;;4929471;29;20507;-75
2024/04/07 07:16:49;;;;;;;10.43;6.20;;;21.60;1.00;;;;;;4929368;29;20043;-74
2024/04/07 07:19:15;;;;;;;10.38;6.88;;;20.90;1.00;;;;;;4932719;29;20027;-75
2024/04/07 07:21:41;;;;;;;10.38;6.32;;;22.10;1.00;;;;;;4932426;29;20103;-75
2024/04/07 07:24:06;;;;;;;11.35;8.40;;;21.50;1.00;;;;;;4895901;29;20036;-75
2024/04/07 07:26:32;;;;;;;8.65;6.55;;;21.30;1.00;;;;;;4896304;29;20037;-74
2024/04/07 07:28:58;;;;;;;8.65;5.53;;;20.80;1.00;;;;;;4896479;29;20041;-74
2024/04/07 07:31:23;;;;;;;11.65;6.22;;;20.90;1.00;;;;;;4896022;29;20147;-74
2024/04/07 07:33:49;;;;;;;10.25;6.30;;;20.90;1.00;;;;;;4895972;29;20198;-74
2024/04/07 07:36:14;;;;;;;9.85;5.93;;;20.30;1.00;;;;;;4896329;29;20532;-74
2024/04/07 07:38:40;;;;;;;9.02;6.28;;;20.80;1.00;;;;;;4896189;29;20068;-75
2024/04/07 07:41:06;;;;;;;8.55;6.00;;;20.20;1.00;;;;;;4896186;29;20119;-74
2024/04/07 07:43:32;;;;;;;8.65;6.18;;;20.00;1.00;;;;;;4895949;29;20052;-75
2024/04/07 07:45:57;;;;;;;10.35;5.95;;;20.30;11.60;;;;;;4915082;29;20037;-76
2024/04/07 07:48:23;;;;;;;10.40;6.53;;;20.10;18.20;;;;;;4914809;29;20036;-76
2024/04/07 07:50:48;;;;;;;8.30;6.05;;;20.90;7.50;;;;;;4928643;29;20043;-75
2024/04/07 07:53:14;;;;;;;10.73;6.15;;;20.40;1.00;;;;;;4895892;29;20509;-76
2024/04/07 07:55:40;;;;;;;9.27;5.78;;;21.20;1.00;;;;;;4909846;29;20481;-76
2024/04/07 07:58:05;;;;;;;8.25;5.80;;;21.50;1.00;;;;;;4877278;29;20037;-76
2024/04/07 08:00:31;;;;;;;11.98;5.60;;;22.40;1.00;;;;;;4858619;29;20049;-76
2024/04/07 08:02:56;;;;;;;8.57;5.90;;;25.30;99.90;;;;;;4858981;29;20038;-76
2024/04/07 08:05:22;;;;;;;9.15;6.00;;;24.60;99.90;;;;;;4858686;29;20056;-75
2024/04/07 08:07:48;;;;;;;9.48;5.72;;;23.40;99.90;;;;;;4860090;29;20077;-76
2024/04/07 08:10:14;;;;;;;8.30;5.20;;;25.80;99.90;;;;;;4862370;29;20045;-76
2024/04/07 08:12:40;;;;;;;8.88;5.97;;;25.30;99.90;;;;;;4867156;29;20112;-76
2024/04/07 08:15:06;;;;;;;7.20;5.35;;;25.30;99.90;;;;;;4875794;29;20045;-76
2024/04/07 08:17:33;;;;;;;9.05;5.47;;;24.40;99.90;;;;;;4880799;29;20101;-76
2024/04/07 08:19:58;;;;;;;7.07;5.15;;;24.60;99.90;;;;;;4894749;29;20060;-76
2024/04/07 08:22:26;;;;;;;5.63;4.50;;;26.80;99.90;;;;;;4855738;29;20068;-76
2024/04/07 08:24:52;;;;;;;6.97;4.53;;;26.80;99.90;;;;;;4857687;29;20074;-76
2024/04/07 08:27:17;;;;;;;8.43;4.53;;;29.60;98.80;;;;;;4862183;29;20037;-76
2024/04/07 08:29:43;;;;;;;6.78;4.50;;;28.20;31.30;;;;;;4853006;29;20446;-76
2024/04/07 08:32:08;;;;;;;7.32;4.50;;;28.50;8.00;;;;;;4861815;29;20474;-76
2024/04/07 08:34:34;;;;;;;7.35;4.00;;;26.60;10.10;;;;;;4861943;29;20085;-76
2024/04/07 08:36:59;;;;;;;5.53;4.03;;;27.90;1.00;;;;;;4879826;29;20489;-76
2024/04/07 08:39:25;;;;;;;4.63;3.70;;;28.40;1.00;;;;;;4917856;29;20042;-75
2024/04/07 08:41:51;;;;;;;5.05;3.35;;;28.50;1.00;;;;;;4918085;29;20043;-76
2024/04/07 08:44:19;;;;;;;4.18;2.92;;;26.90;1.00;;;;;;4932398;29;20044;-76
2024/04/07 08:46:46;;;;;;;5.25;2.92;;;26.10;1.00;;;;;;4936834;29;20039;-75
2024/04/07 08:49:14;;;;;;;5.25;3.13;;;27.80;1.00;;;;;;4936923;29;20498;-75
2024/04/07 08:51:46;;;;;;;3.70;2.90;;;28.60;1.00;;;;;;4936862;29;20476;-75
2024/04/07 08:54:13;;;;;;;4.22;3.10;;;27.50;1.00;;;;;;4969184;28;20137;-75
2024/04/07 08:56:40;;;;;;;4.15;2.90;;;27.40;1.00;;;;;;4975401;28;20042;-75
2024/04/07 08:59:08;;;;;;;4.07;2.90;;;27.00;1.00;;;;;;4975270;28;20035;-75
2024/04/07 09:01:37;;;;;;;4.82;3.00;;;28.30;1.00;;;;;;4991768;28;20109;-75
2024/04/07 09:04:03;;;;;;;4.78;2.78;;;27.00;1.00;;;;;;4994804;28;20046;-76
2024/04/07 09:06:29;;;;;;;4.13;2.70;;;27.10;1.00;;;;;;4994312;28;20501;-74
2024/04/07 09:08:58;;;;;;;3.83;2.60;;;29.90;1.00;;;;;;4994333;28;20085;-74
2024/04/07 09:11:24;;;;;;;4.10;2.90;;;29.90;1.00;;;;;;4994629;28;20482;-74
2024/04/07 09:13:50;;;;;;;4.88;2.90;;;28.50;1.00;;;;;;4974602;28;20049;-74
2024/04/07 09:16:17;;;;;;;3.95;2.88;;;27.80;1.00;;;;;;4990211;28;20120;-74
2024/04/07 09:18:43;;;;;;;5.18;3.20;;;28.80;1.00;;;;;;4994145;28;20133;-74
2024/04/07 09:21:19;;;;;;;5.38;2.92;;;28.40;1.00;;;;;;4993658;28;20442;-74
2024/04/07 09:23:46;;;;;;;5.35;3.20;;;28.50;1.00;;;;;;4994152;28;20042;-74
2024/04/07 09:26:12;;;;;;;3.88;2.75;;;28.60;1.00;;;;;;4994055;28;20053;-73
2024/04/07 09:28:38;;;;;;;4.22;2.78;;;27.40;1.00;;;;;;4994045;28;20133;-74
2024/04/07 09:31:04;;;;;;;4.38;2.75;;;29.10;1.00;;;;;;4954916;29;20047;-74
2024/04/07 09:33:31;;;;;;;7.00;3.20;;;27.10;1.00;;;;;;4954970;29;20458;-74
2024/04/07 09:35:59;;;;;;;4.30;2.70;;;27.20;1.00;;;;;;4955151;29;20071;-74
2024/04/07 09:38:25;;;;;;;5.30;2.92;;;27.60;1.00;;;;;;4955411;29;20035;-74
2024/04/07 09:40:56;;;;;;;11.55;8.85;;;27.60;1.00;;;;;;4954950;29;20143;-75
2024/04/07 09:43:23;;;;;;;6.97;4.82;;;28.20;1.00;;;;;;4955067;29;20028;-75
2024/04/07 09:45:52;;;;;;;4.25;3.00;;;26.50;1.00;;;;;;4954937;29;20045;-75
2024/04/07 09:48:21;;;;;;;4.95;2.65;;;28.40;1.00;;;;;;4916541;29;20045;-75
2024/04/07 09:51:03;;;;;;;4.63;2.78;;;29.40;1.00;;;;;;4977000;28;20026;-75
2024/04/07 09:53:56;;;;;;;4.55;2.47;;;28.60;1.00;;;;;;4973958;28;20521;-75
2024/04/07 09:56:28;;;;;;;3.53;2.60;;;28.10;1.00;;;;;;4974470;28;20126;-75
2024/04/07 09:58:54;;;;;;;5.93;2.95;;;29.50;1.00;;;;;;4974389;28;20031;-74
2024/04/07 10:01:21;;;;;;;3.88;2.78;;;27.10;1.00;;;;;;4977911;28;20035;-75
2024/04/07 10:03:49;;;;;;;5.72;2.58;;;27.80;1.00;;;;;;4973670;28;20482;-75
2024/04/07 10:06:16;;;;;;;5.88;2.67;;;26.40;1.00;;;;;;4973707;28;20053;-76
2024/04/07 10:08:43;;;;;;;4.10;2.30;;;26.10;1.00;;;;;;4935022;29;20047;-76
2024/04/07 10:11:19;;;;;;;3.67;2.38;;;25.70;1.00;;;;;;4935200;29;20043;-76
2024/04/07 10:13:45;;;;;;;5.03;2.88;;;27.20;1.00;;;;;;4934913;29;20388;-75
2024/04/07 10:16:13;;;;;;;4.97;2.90;;;26.70;1.00;;;;;;4919228;29;20047;-76
2024/04/07 10:18:41;;;;;;;3.30;2.33;;;27.30;1.00;;;;;;4939471;29;20046;-75
2024/04/07 10:21:07;;;;;;;3.80;2.50;;;26.30;1.00;;;;;;4954113;29;20058;-76
2024/04/07 10:23:40;;;;;;;4.80;2.50;;;26.60;1.00;;;;;;4956836;28;20478;-75
2024/04/07 10:26:07;;;;;;;4.18;2.63;;;27.50;1.00;;;;;;4973551;28;20042;-75
2024/04/07 10:28:45;;;;;;;3.63;2.33;;;26.70;1.00;;;;;;4992404;28;20430;-75
2024/04/07 10:31:11;;;;;;;4.47;2.63;;;27.10;1.00;;;;;;4991819;28;20478;-75
2024/04/07 10:33:37;;;;;;;3.40;2.10;;;26.30;1.00;;;;;;4992282;28;20038;-75
2024/04/07 10:36:03;;;;;;;7.30;2.60;;;25.10;1.00;;;;;;4953657;28;20159;-75
2024/04/07 10:38:55;;;;;;;4.22;2.25;;;26.40;1.00;;;;;;4953550;28;20122;-75
2024/04/07 10:41:25;;;;;;;4.50;2.30;;;24.80;1.00;;;;;;4993006;28;20057;-75
2024/04/07 10:43:51;;;;;;;4.15;2.20;;;26.10;1.00;;;;;;4934762;29;20182;-75
2024/04/07 10:46:19;;;;;;;5.85;2.10;;;26.30;1.00;;;;;;4934603;29;20099;-74
2024/04/07 10:48:45;;;;;;;6.03;2.10;;;26.40;1.00;;;;;;4896615;29;20052;-74
2024/04/07 10:51:15;;;;;;;4.07;2.17;;;26.10;1.00;;;;;;4859124;29;20508;-75
2024/04/07 10:53:43;;;;;;;3.10;1.83;;;26.20;1.00;;;;;;4859100;29;20045;-74
2024/04/07 10:56:09;;;;;;;5.03;2.15;;;26.70;1.00;;;;;;4859679;29;20129;-75
2024/04/07 10:58:35;;;;;;;3.17;1.90;;;27.00;1.00;;;;;;4859026;29;20090;-75
2024/04/07 11:01:01;;;;;;;3.70;1.80;;;26.00;1.00;;;;;;4859454;29;20053;-76
2024/04/07 11:03:28;;;;;;;4.53;2.47;;;26.20;1.00;;;;;;4859415;29;20046;-76
2024/04/07 11:05:54;;;;;;;2.65;1.90;;;26.40;1.00;;;;;;4876766;29;20093;-75
2024/04/07 11:08:22;;;;;;;3.10;1.80;;;26.40;1.00;;;;;;4841558;29;20155;-75
2024/04/07 11:10:52;;;;;;;2.72;1.80;;;26.00;1.00;;;;;;4877660;29;20041;-75
2024/04/07 11:13:18;;;;;;;4.00;1.98;;;26.90;1.00;;;;;;4858695;29;20041;-75
2024/04/07 11:15:45;;;;;;;3.90;1.75;;;26.60;1.00;;;;;;4891208;29;20520;-75
2024/04/07 11:18:18;;;;;;;3.95;2.08;;;26.10;1.00;;;;;;4858697;29;20060;-75
2024/04/07 11:20:44;;;;;;;3.63;2.10;;;25.80;1.00;;;;;;4873505;29;20455;-75
2024/04/07 11:23:12;;;;;;;3.70;2.05;;;25.80;1.00;;;;;;4894251;29;20096;-75
2024/04/07 11:25:39;;;;;;;4.00;2.05;;;26.20;1.00;;;;;;4896055;29;20045;-75
2024/04/07 11:28:07;;;;;;;3.53;2.17;;;25.90;1.00;;;;;;4896042;29;20075;-75
2024/04/07 11:30:38;;;;;;;3.53;1.95;;;25.20;1.00;;;;;;4875137;29;20049;-75
2024/04/07 11:33:05;;;;;;;3.75;1.83;;;25.00;1.00;;;;;;4877433;29;20111;-75
2024/04/07 11:35:34;;;;;;;3.17;1.90;;;24.60;1.00;;;;;;4895680;29;20518;-75
2024/04/07 11:38:00;;;;;;;3.53;1.80;;;24.80;1.00;;;;;;4859476;29;20074;-75
2024/04/07 11:40:26;;;;;;;3.47;1.83;;;25.80;1.00;;;;;;4859158;29;20041;-75
2024/04/07 11:42:52;;;;;;;3.97;2.25;;;26.60;1.00;;;;;;4859869;29;20367;-75
2024/04/07 11:45:18;;;;;;;3.00;1.90;;;27.50;1.00;;;;;;4879833;29;20048;-75
2024/04/07 11:47:44;;;;;;;3.75;1.80;;;28.00;1.00;;;;;;4881578;29;20033;-74
2024/04/07 11:50:10;;;;;;;3.40;1.90;;;26.20;1.00;;;;;;4915650;29;20040;-74
2024/04/07 11:52:40;;;;;;;2.85;1.80;;;26.30;1.00;;;;;;4899768;29;20046;-74
2024/04/07 11:55:06;;;;;;;3.28;1.65;;;27.50;1.00;;;;;;4900119;29;20049;-74
2024/04/07 11:57:32;;;;;;;2.72;1.77;;;26.50;1.00;;;;;;4899660;29;20444;-75
2024/04/07 11:59:58;;;;;;;3.33;1.80;;;26.20;1.00;;;;;;4899961;29;20040;-75
2024/04/07 12:02:24;;;;;;;3.47;1.73;;;25.80;1.00;;;;;;4932033;29;20032;-74
2024/04/07 12:04:49;;;;;;;3.53;1.70;;;26.00;1.00;;;;;;4934018;29;20035;-75
2024/04/07 12:07:15;;;;;;;3.35;1.95;;;26.30;1.00;;;;;;4953015;29;20102;-74
2024/04/07 12:09:42;;;;;;;2.25;1.55;;;26.30;1.00;;;;;;4971832;28;20041;-75
2024/04/07 12:12:11;;;;;;;3.35;2.00;;;26.10;1.00;;;;;;4976033;28;20038;-75
2024/04/07 12:14:37;;;;;;;6.20;1.80;;;26.60;1.00;;;;;;4956200;29;20395;-75
2024/04/07 12:17:04;;;;;;;3.22;1.90;;;26.50;1.00;;;;;;4956500;29;20035;-75
2024/04/07 12:19:30;;;;;;;4.07;2.60;;;25.60;1.00;;;;;;4956631;29;20043;-75
2024/04/07 12:21:56;;;;;;;3.08;1.80;;;26.40;1.00;;;;;;4937176;29;20058;-75
2024/04/07 12:24:22;;;;;;;4.40;2.00;;;27.30;1.00;;;;;;4969055;28;20212;-74
2024/04/07 12:26:49;;;;;;;2.80;1.70;;;26.70;1.00;;;;;;4975661;28;20486;-75
2024/04/07 12:29:14;;;;;;;4.80;1.90;;;26.60;1.00;;;;;;4975538;28;20046;-74
2024/04/07 12:31:40;;;;;;;2.78;1.60;;;26.70;1.00;;;;;;4975506;28;20569;-74
2024/04/07 12:34:05;;;;;;;3.45;1.95;;;26.20;1.00;;;;;;4956040;29;20486;-74
2024/04/07 12:36:32;;;;;;;3.13;1.77;;;26.60;1.00;;;;;;4951924;29;20130;-74
2024/04/07 12:39:04;;;;;;;2.78;1.85;;;26.30;1.00;;;;;;4956333;29;20503;-75
2024/04/07 12:41:31;;;;;;;4.15;2.17;;;26.00;1.00;;;;;;4956255;29;20062;-75